sensor_id;sensor_type;location;lat;lon;timestamp;P1;durP1;ratioP1;P2;durP2;ratioP2
9156;SDS011;4613;48.392;9.998;2023-04-25T00:00:57;2.27;;;1.73;;
9156;SDS011;4613;48.392;9.998;2023-04-25T00:03:47;1.43;;;1.33;;
9156;SDS011;4613;48.392;9.998;2023-04-25T00:06:37;1.77;;;1.50;;
9156;SDS011;4613;48.392;9.998;2023-04-25T00:09:28;1.77;;;1.63;;
9156;SDS011;4613;48.392;9.998;2023-04-25T00:12:17;2.80;;;1.40;;
9156;SDS011;4613;48.392;9.998;2023-04-25T00:15:13;1.33;;;1.23;;
9156;SDS011;4613;48.392;9.998;2023-04-25T00:18:02;1.97;;;1.30;;
9156;SDS011;4613;48.392;9.998;2023-04-25T00:20:51;1.40;;;1.27;;
9156;SDS011;4613;48.392;9.998;2023-04-25T00:23:40;2.10;;;1.63;;
9156;SDS011;4613;48.392;9.998;2023-04-25T00:26:30;1.50;;;1.40;;
9156;SDS011;4613;48.392;9.998;2023-04-25T00:29:19;1.70;;;1.30;;
9156;SDS011;4613;48.392;9.998;2023-04-25T00:32:09;1.90;;;1.60;;
9156;SDS011;4613;48.392;9.998;2023-04-25T00:34:59;1.50;;;1.40;;
9156;SDS011;4613;48.392;9.998;2023-04-25T00:37:48;1.40;;;1.30;;
9156;SDS011;4613;48.392;9.998;2023-04-25T00:40:38;1.40;;;1.30;;
9156;SDS011;4613;48.392;9.998;2023-04-25T00:43:27;1.60;;;1.50;;
9156;SDS011;4613;48.392;9.998;2023-04-25T00:46:18;2.80;;;1.80;;
9156;SDS011;4613;48.392;9.998;2023-04-25T00:49:08;2.70;;;1.50;;
9156;SDS011;4613;48.392;9.998;2023-04-25T00:52:02;2.63;;;1.40;;
9156;SDS011;4613;48.392;9.998;2023-04-25T00:54:52;1.73;;;1.63;;
9156;SDS011;4613;48.392;9.998;2023-04-25T00:57:42;1.50;;;1.40;;
9156;SDS011;4613;48.392;9.998;2023-04-25T01:00:35;1.50;;;1.40;;
9156;SDS011;4613;48.392;9.998;2023-04-25T01:03:34;1.60;;;1.50;;
9156;SDS011;4613;48.392;9.998;2023-04-25T01:06:29;1.40;;;1.30;;
9156;SDS011;4613;48.392;9.998;2023-04-25T01:09:19;2.47;;;1.40;;
9156;SDS011;4613;48.392;9.998;2023-04-25T01:12:10;2.50;;;1.80;;
9156;SDS011;4613;48.392;9.998;2023-04-25T01:15:00;1.93;;;1.60;;
9156;SDS011;4613;48.392;9.998;2023-04-25T01:17:49;2.87;;;1.80;;
9156;SDS011;4613;48.392;9.998;2023-04-25T01:20:39;1.60;;;1.50;;
9156;SDS011;4613;48.392;9.998;2023-04-25T01:23:30;1.53;;;1.43;;
9156;SDS011;4613;48.392;9.998;2023-04-25T01:26:22;1.43;;;1.30;;
9156;SDS011;4613;48.392;9.998;2023-04-25T01:29:11;1.70;;;1.60;;
9156;SDS011;4613;48.392;9.998;2023-04-25T01:32:01;1.87;;;1.70;;
9156;SDS011;4613;48.392;9.998;2023-04-25T01:34:51;2.03;;;1.50;;
9156;SDS011;4613;48.392;9.998;2023-04-25T01:37:42;1.73;;;1.63;;
9156;SDS011;4613;48.392;9.998;2023-04-25T01:40:33;1.87;;;1.70;;
9156;SDS011;4613;48.392;9.998;2023-04-25T01:43:25;2.10;;;1.80;;
9156;SDS011;4613;48.392;9.998;2023-04-25T01:46:15;1.40;;;1.30;;
9156;SDS011;4613;48.392;9.998;2023-04-25T01:49:04;2.00;;;1.60;;
9156;SDS011;4613;48.392;9.998;2023-04-25T01:51:55;1.73;;;1.50;;
9156;SDS011;4613;48.392;9.998;2023-04-25T01:54:44;2.53;;;1.70;;
9156;SDS011;4613;48.392;9.998;2023-04-25T01:57:35;2.00;;;1.67;;
9156;SDS011;4613;48.392;9.998;2023-04-25T02:00:25;1.60;;;1.50;;
9156;SDS011;4613;48.392;9.998;2023-04-25T02:03:14;1.87;;;1.60;;
9156;SDS011;4613;48.392;9.998;2023-04-25T02:06:04;2.20;;;1.60;;
9156;SDS011;4613;48.392;9.998;2023-04-25T02:08:56;1.40;;;1.30;;
9156;SDS011;4613;48.392;9.998;2023-04-25T02:11:46;1.70;;;1.60;;
9156;SDS011;4613;48.392;9.998;2023-04-25T02:14:51;1.60;;;1.50;;
9156;SDS011;4613;48.392;9.998;2023-04-25T02:18:01;2.97;;;1.63;;
9156;SDS011;4613;48.392;9.998;2023-04-25T02:20:50;3.30;;;1.53;;
9156;SDS011;4613;48.392;9.998;2023-04-25T02:23:45;1.93;;;1.60;;
9156;SDS011;4613;48.392;9.998;2023-04-25T02:26:40;2.10;;;1.90;;
9156;SDS011;4613;48.392;9.998;2023-04-25T02:29:31;1.70;;;1.60;;
9156;SDS011;4613;48.392;9.998;2023-04-25T02:32:20;3.27;;;1.70;;
9156;SDS011;4613;48.392;9.998;2023-04-25T02:35:10;1.80;;;1.70;;
9156;SDS011;4613;48.392;9.998;2023-04-25T02:37:59;2.37;;;2.10;;
9156;SDS011;4613;48.392;9.998;2023-04-25T02:40:48;2.97;;;1.43;;
9156;SDS011;4613;48.392;9.998;2023-04-25T02:43:38;1.53;;;1.43;;
9156;SDS011;4613;48.392;9.998;2023-04-25T02:46:27;1.93;;;1.73;;
9156;SDS011;4613;48.392;9.998;2023-04-25T02:49:16;1.90;;;1.80;;
9156;SDS011;4613;48.392;9.998;2023-04-25T02:52:05;3.33;;;1.93;;
9156;SDS011;4613;48.392;9.998;2023-04-25T02:54:55;2.10;;;1.87;;
9156;SDS011;4613;48.392;9.998;2023-04-25T02:57:45;1.70;;;1.60;;
9156;SDS011;4613;48.392;9.998;2023-04-25T03:00:43;2.30;;;2.10;;
9156;SDS011;4613;48.392;9.998;2023-04-25T03:03:34;2.30;;;1.50;;
9156;SDS011;4613;48.392;9.998;2023-04-25T03:06:24;1.60;;;1.50;;
9156;SDS011;4613;48.392;9.998;2023-04-25T03:09:16;4.50;;;1.80;;
9156;SDS011;4613;48.392;9.998;2023-04-25T03:12:06;2.97;;;2.20;;
9156;SDS011;4613;48.392;9.998;2023-04-25T03:14:56;2.43;;;2.03;;
9156;SDS011;4613;48.392;9.998;2023-04-25T03:17:45;2.07;;;1.80;;
9156;SDS011;4613;48.392;9.998;2023-04-25T03:20:35;1.60;;;1.50;;
9156;SDS011;4613;48.392;9.998;2023-04-25T03:23:25;3.50;;;2.00;;
9156;SDS011;4613;48.392;9.998;2023-04-25T03:26:14;1.60;;;1.50;;
9156;SDS011;4613;48.392;9.998;2023-04-25T03:29:04;1.70;;;1.50;;
9156;SDS011;4613;48.392;9.998;2023-04-25T03:32:03;1.40;;;1.30;;
9156;SDS011;4613;48.392;9.998;2023-04-25T03:34:53;2.03;;;1.83;;
9156;SDS011;4613;48.392;9.998;2023-04-25T03:37:43;3.37;;;1.93;;
9156;SDS011;4613;48.392;9.998;2023-04-25T03:40:37;1.73;;;1.60;;
9156;SDS011;4613;48.392;9.998;2023-04-25T03:43:45;1.60;;;1.50;;
9156;SDS011;4613;48.392;9.998;2023-04-25T03:46:36;2.37;;;1.97;;
9156;SDS011;4613;48.392;9.998;2023-04-25T03:49:25;2.43;;;1.93;;
9156;SDS011;4613;48.392;9.998;2023-04-25T03:52:25;2.13;;;1.60;;
9156;SDS011;4613;48.392;9.998;2023-04-25T03:55:15;2.10;;;1.70;;
9156;SDS011;4613;48.392;9.998;2023-04-25T03:58:05;1.83;;;1.70;;
9156;SDS011;4613;48.392;9.998;2023-04-25T04:00:54;1.83;;;1.67;;
9156;SDS011;4613;48.392;9.998;2023-04-25T04:03:44;2.03;;;1.83;;
9156;SDS011;4613;48.392;9.998;2023-04-25T04:06:34;3.53;;;2.40;;
9156;SDS011;4613;48.392;9.998;2023-04-25T04:09:32;1.60;;;1.50;;
9156;SDS011;4613;48.392;9.998;2023-04-25T04:12:25;2.80;;;2.10;;
9156;SDS011;4613;48.392;9.998;2023-04-25T04:15:15;2.10;;;1.90;;
9156;SDS011;4613;48.392;9.998;2023-04-25T04:18:06;2.20;;;1.77;;
9156;SDS011;4613;48.392;9.998;2023-04-25T04:20:56;2.10;;;1.63;;
9156;SDS011;4613;48.392;9.998;2023-04-25T04:23:47;2.20;;;1.90;;
9156;SDS011;4613;48.392;9.998;2023-04-25T04:26:37;2.17;;;1.63;;
9156;SDS011;4613;48.392;9.998;2023-04-25T04:29:34;2.03;;;1.90;;
9156;SDS011;4613;48.392;9.998;2023-04-25T04:32:30;2.17;;;1.90;;
9156;SDS011;4613;48.392;9.998;2023-04-25T04:35:22;2.17;;;1.93;;
9156;SDS011;4613;48.392;9.998;2023-04-25T04:38:13;2.47;;;1.77;;
9156;SDS011;4613;48.392;9.998;2023-04-25T04:41:04;3.83;;;1.70;;
9156;SDS011;4613;48.392;9.998;2023-04-25T04:44:32;2.93;;;1.60;;
9156;SDS011;4613;48.392;9.998;2023-04-25T04:47:46;2.93;;;1.80;;
9156;SDS011;4613;48.392;9.998;2023-04-25T04:51:00;3.43;;;2.03;;
9156;SDS011;4613;48.392;9.998;2023-04-25T04:54:06;3.93;;;1.70;;
9156;SDS011;4613;48.392;9.998;2023-04-25T04:57:21;2.67;;;1.83;;
9156;SDS011;4613;48.392;9.998;2023-04-25T05:00:34;2.40;;;1.77;;
9156;SDS011;4613;48.392;9.998;2023-04-25T05:03:41;1.87;;;1.73;;
9156;SDS011;4613;48.392;9.998;2023-04-25T05:06:56;1.43;;;1.33;;
9156;SDS011;4613;48.392;9.998;2023-04-25T05:10:06;2.63;;;1.40;;
9156;SDS011;4613;48.392;9.998;2023-04-25T05:13:07;3.40;;;1.73;;
9156;SDS011;4613;48.392;9.998;2023-04-25T05:16:26;1.50;;;1.40;;
9156;SDS011;4613;48.392;9.998;2023-04-25T05:19:32;1.87;;;1.50;;
9156;SDS011;4613;48.392;9.998;2023-04-25T05:22:44;2.20;;;2.00;;
9156;SDS011;4613;48.392;9.998;2023-04-25T05:25:52;1.60;;;1.50;;
9156;SDS011;4613;48.392;9.998;2023-04-25T05:28:54;2.23;;;1.80;;
9156;SDS011;4613;48.392;9.998;2023-04-25T05:32:02;1.73;;;1.50;;
9156;SDS011;4613;48.392;9.998;2023-04-25T05:34:56;6.67;;;1.90;;
9156;SDS011;4613;48.392;9.998;2023-04-25T05:37:49;1.63;;;1.53;;
9156;SDS011;4613;48.392;9.998;2023-04-25T05:40:39;1.63;;;1.33;;
9156;SDS011;4613;48.392;9.998;2023-04-25T05:43:40;2.17;;;1.30;;
9156;SDS011;4613;48.392;9.998;2023-04-25T05:46:52;2.87;;;1.60;;
9156;SDS011;4613;48.392;9.998;2023-04-25T05:49:53;4.00;;;2.00;;
9156;SDS011;4613;48.392;9.998;2023-04-25T05:52:54;1.83;;;1.67;;
9156;SDS011;4613;48.392;9.998;2023-04-25T05:55:51;2.53;;;1.60;;
9156;SDS011;4613;48.392;9.998;2023-04-25T05:58:47;2.43;;;1.70;;
9156;SDS011;4613;48.392;9.998;2023-04-25T06:01:36;2.93;;;1.97;;
9156;SDS011;4613;48.392;9.998;2023-04-25T06:04:26;1.40;;;1.30;;
9156;SDS011;4613;48.392;9.998;2023-04-25T06:07:17;3.43;;;1.63;;
9156;SDS011;4613;48.392;9.998;2023-04-25T06:10:08;1.73;;;1.40;;
9156;SDS011;4613;48.392;9.998;2023-04-25T06:12:57;3.00;;;2.00;;
9156;SDS011;4613;48.392;9.998;2023-04-25T06:15:48;2.37;;;1.43;;
9156;SDS011;4613;48.392;9.998;2023-04-25T06:18:37;2.70;;;1.70;;
9156;SDS011;4613;48.392;9.998;2023-04-25T06:21:27;4.43;;;1.77;;
9156;SDS011;4613;48.392;9.998;2023-04-25T06:24:16;1.50;;;1.40;;
9156;SDS011;4613;48.392;9.998;2023-04-25T06:27:06;2.87;;;1.60;;
9156;SDS011;4613;48.392;9.998;2023-04-25T06:29:56;1.77;;;1.67;;
9156;SDS011;4613;48.392;9.998;2023-04-25T06:32:46;1.87;;;1.37;;
9156;SDS011;4613;48.392;9.998;2023-04-25T06:35:36;1.50;;;1.40;;
9156;SDS011;4613;48.392;9.998;2023-04-25T06:38:27;2.60;;;1.70;;
9156;SDS011;4613;48.392;9.998;2023-04-25T06:41:18;1.60;;;1.40;;
9156;SDS011;4613;48.392;9.998;2023-04-25T06:44:08;1.90;;;1.60;;
9156;SDS011;4613;48.392;9.998;2023-04-25T06:47:02;1.30;;;1.23;;
9156;SDS011;4613;48.392;9.998;2023-04-25T06:49:51;1.20;;;1.10;;
9156;SDS011;4613;48.392;9.998;2023-04-25T06:52:43;1.27;;;1.27;;
9156;SDS011;4613;48.392;9.998;2023-04-25T06:55:33;1.30;;;1.20;;
9156;SDS011;4613;48.392;9.998;2023-04-25T06:58:36;1.00;;;1.00;;
9156;SDS011;4613;48.392;9.998;2023-04-25T07:01:34;2.80;;;1.27;;
9156;SDS011;4613;48.392;9.998;2023-04-25T07:04:27;1.20;;;1.10;;
9156;SDS011;4613;48.392;9.998;2023-04-25T07:07:21;1.30;;;1.20;;
9156;SDS011;4613;48.392;9.998;2023-04-25T07:10:17;1.37;;;1.10;;
9156;SDS011;4613;48.392;9.998;2023-04-25T07:13:06;5.33;;;1.33;;
9156;SDS011;4613;48.392;9.998;2023-04-25T07:15:55;1.47;;;1.20;;
9156;SDS011;4613;48.392;9.998;2023-04-25T07:18:45;1.53;;;1.30;;
9156;SDS011;4613;48.392;9.998;2023-04-25T07:21:35;1.60;;;1.50;;
9156;SDS011;4613;48.392;9.998;2023-04-25T07:24:26;3.57;;;1.60;;
9156;SDS011;4613;48.392;9.998;2023-04-25T07:27:17;1.20;;;1.20;;
9156;SDS011;4613;48.392;9.998;2023-04-25T07:30:13;1.30;;;1.20;;
9156;SDS011;4613;48.392;9.998;2023-04-25T07:33:03;1.40;;;1.30;;
9156;SDS011;4613;48.392;9.998;2023-04-25T07:35:53;1.47;;;1.30;;
9156;SDS011;4613;48.392;9.998;2023-04-25T07:38:45;1.50;;;1.40;;
9156;SDS011;4613;48.392;9.998;2023-04-25T07:41:35;1.90;;;1.50;;
9156;SDS011;4613;48.392;9.998;2023-04-25T07:44:25;2.70;;;1.60;;
9156;SDS011;4613;48.392;9.998;2023-04-25T07:47:14;2.70;;;1.50;;
9156;SDS011;4613;48.392;9.998;2023-04-25T07:50:05;1.70;;;1.60;;
9156;SDS011;4613;48.392;9.998;2023-04-25T07:52:55;2.20;;;1.60;;
9156;SDS011;4613;48.392;9.998;2023-04-25T07:55:53;1.70;;;1.43;;
9156;SDS011;4613;48.392;9.998;2023-04-25T07:58:44;1.70;;;1.60;;
9156;SDS011;4613;48.392;9.998;2023-04-25T08:01:36;1.50;;;1.40;;
9156;SDS011;4613;48.392;9.998;2023-04-25T08:04:28;1.53;;;1.43;;
9156;SDS011;4613;48.392;9.998;2023-04-25T08:07:23;2.00;;;1.80;;
9156;SDS011;4613;48.392;9.998;2023-04-25T08:10:17;2.87;;;1.50;;
9156;SDS011;4613;48.392;9.998;2023-04-25T08:13:07;4.03;;;1.93;;
9156;SDS011;4613;48.392;9.998;2023-04-25T08:15:57;2.50;;;1.80;;
9156;SDS011;4613;48.392;9.998;2023-04-25T08:18:48;2.10;;;1.73;;
9156;SDS011;4613;48.392;9.998;2023-04-25T08:21:39;2.27;;;1.30;;
9156;SDS011;4613;48.392;9.998;2023-04-25T08:24:33;2.10;;;1.53;;
9156;SDS011;4613;48.392;9.998;2023-04-25T08:27:22;4.40;;;1.70;;
9156;SDS011;4613;48.392;9.998;2023-04-25T08:30:13;1.67;;;1.40;;
9156;SDS011;4613;48.392;9.998;2023-04-25T08:33:04;1.17;;;1.17;;
9156;SDS011;4613;48.392;9.998;2023-04-25T08:36:11;1.33;;;1.20;;
9156;SDS011;4613;48.392;9.998;2023-04-25T08:39:03;1.13;;;1.03;;
9156;SDS011;4613;48.392;9.998;2023-04-25T08:41:54;1.70;;;1.50;;
9156;SDS011;4613;48.392;9.998;2023-04-25T08:44:45;2.90;;;1.20;;
9156;SDS011;4613;48.392;9.998;2023-04-25T08:47:36;4.03;;;1.20;;
9156;SDS011;4613;48.392;9.998;2023-04-25T08:50:28;1.37;;;1.20;;
9156;SDS011;4613;48.392;9.998;2023-04-25T08:53:26;2.40;;;1.70;;
9156;SDS011;4613;48.392;9.998;2023-04-25T08:56:17;1.23;;;1.20;;
9156;SDS011;4613;48.392;9.998;2023-04-25T08:59:12;1.40;;;1.30;;
9156;SDS011;4613;48.392;9.998;2023-04-25T09:02:02;1.20;;;1.20;;
9156;SDS011;4613;48.392;9.998;2023-04-25T09:04:54;2.33;;;1.30;;
9156;SDS011;4613;48.392;9.998;2023-04-25T09:07:44;1.87;;;1.37;;
9156;SDS011;4613;48.392;9.998;2023-04-25T09:10:33;1.00;;;1.00;;
9156;SDS011;4613;48.392;9.998;2023-04-25T09:13:25;1.30;;;1.10;;
9156;SDS011;4613;48.392;9.998;2023-04-25T09:16:35;1.63;;;1.17;;
9156;SDS011;4613;48.392;9.998;2023-04-25T09:20:06;1.40;;;1.30;;
9156;SDS011;4613;48.392;9.998;2023-04-25T09:23:01;1.50;;;1.40;;
9156;SDS011;4613;48.392;9.998;2023-04-25T09:25:54;1.57;;;1.40;;
9156;SDS011;4613;48.392;9.998;2023-04-25T09:28:44;1.90;;;1.70;;
9156;SDS011;4613;48.392;9.998;2023-04-25T09:31:35;3.50;;;1.30;;
9156;SDS011;4613;48.392;9.998;2023-04-25T09:34:27;1.30;;;1.20;;
9156;SDS011;4613;48.392;9.998;2023-04-25T09:37:20;1.83;;;1.20;;
9156;SDS011;4613;48.392;9.998;2023-04-25T09:40:29;2.80;;;1.40;;
9156;SDS011;4613;48.392;9.998;2023-04-25T09:43:30;1.57;;;1.40;;
9156;SDS011;4613;48.392;9.998;2023-04-25T09:46:19;1.40;;;1.30;;
9156;SDS011;4613;48.392;9.998;2023-04-25T09:49:16;1.27;;;1.20;;
9156;SDS011;4613;48.392;9.998;2023-04-25T09:52:21;3.17;;;1.50;;
9156;SDS011;4613;48.392;9.998;2023-04-25T09:55:22;1.77;;;1.40;;
9156;SDS011;4613;48.392;9.998;2023-04-25T09:58:12;1.20;;;1.10;;
9156;SDS011;4613;48.392;9.998;2023-04-25T10:01:05;1.70;;;1.30;;
9156;SDS011;4613;48.392;9.998;2023-04-25T10:04:07;2.03;;;1.30;;
9156;SDS011;4613;48.392;9.998;2023-04-25T10:07:20;1.20;;;1.10;;
9156;SDS011;4613;48.392;9.998;2023-04-25T10:10:14;1.10;;;1.10;;
9156;SDS011;4613;48.392;9.998;2023-04-25T10:13:04;2.47;;;1.50;;
9156;SDS011;4613;48.392;9.998;2023-04-25T10:15:55;1.03;;;1.03;;
9156;SDS011;4613;48.392;9.998;2023-04-25T10:18:46;1.43;;;1.20;;
9156;SDS011;4613;48.392;9.998;2023-04-25T10:21:35;1.57;;;1.30;;
9156;SDS011;4613;48.392;9.998;2023-04-25T10:24:33;4.60;;;1.50;;
9156;SDS011;4613;48.392;9.998;2023-04-25T10:27:27;1.23;;;1.13;;
9156;SDS011;4613;48.392;9.998;2023-04-25T10:30:17;1.20;;;1.10;;
9156;SDS011;4613;48.392;9.998;2023-04-25T10:33:16;0.70;;;0.70;;
9156;SDS011;4613;48.392;9.998;2023-04-25T10:36:11;0.67;;;0.67;;
9156;SDS011;4613;48.392;9.998;2023-04-25T10:39:05;0.63;;;0.63;;
9156;SDS011;4613;48.392;9.998;2023-04-25T10:41:56;1.00;;;1.00;;
9156;SDS011;4613;48.392;9.998;2023-04-25T10:45:00;1.50;;;1.20;;
9156;SDS011;4613;48.392;9.998;2023-04-25T10:47:52;2.20;;;0.60;;
9156;SDS011;4613;48.392;9.998;2023-04-25T10:50:43;1.93;;;1.10;;
9156;SDS011;4613;48.392;9.998;2023-04-25T10:53:33;0.80;;;0.80;;
9156;SDS011;4613;48.392;9.998;2023-04-25T10:56:25;1.93;;;1.10;;
9156;SDS011;4613;48.392;9.998;2023-04-25T10:59:16;1.93;;;1.40;;
9156;SDS011;4613;48.392;9.998;2023-04-25T11:02:11;1.43;;;1.10;;
9156;SDS011;4613;48.392;9.998;2023-04-25T11:05:01;1.33;;;0.80;;
9156;SDS011;4613;48.392;9.998;2023-04-25T11:07:52;0.87;;;0.87;;
9156;SDS011;4613;48.392;9.998;2023-04-25T11:10:45;0.80;;;0.80;;
9156;SDS011;4613;48.392;9.998;2023-04-25T11:13:36;0.80;;;0.80;;
9156;SDS011;4613;48.392;9.998;2023-04-25T11:16:25;1.10;;;1.00;;
9156;SDS011;4613;48.392;9.998;2023-04-25T11:19:14;0.93;;;0.93;;
9156;SDS011;4613;48.392;9.998;2023-04-25T11:22:03;0.70;;;0.70;;
9156;SDS011;4613;48.392;9.998;2023-04-25T11:24:53;0.70;;;0.70;;
9156;SDS011;4613;48.392;9.998;2023-04-25T11:27:49;1.20;;;1.03;;
9156;SDS011;4613;48.392;9.998;2023-04-25T11:30:39;1.13;;;0.77;;
9156;SDS011;4613;48.392;9.998;2023-04-25T11:33:36;1.03;;;0.93;;
9156;SDS011;4613;48.392;9.998;2023-04-25T11:36:26;0.80;;;0.80;;
9156;SDS011;4613;48.392;9.998;2023-04-25T11:39:16;1.43;;;0.93;;
9156;SDS011;4613;48.392;9.998;2023-04-25T11:42:06;0.87;;;0.87;;
9156;SDS011;4613;48.392;9.998;2023-04-25T11:44:55;0.80;;;0.80;;
9156;SDS011;4613;48.392;9.998;2023-04-25T11:47:44;1.33;;;0.90;;
9156;SDS011;4613;48.392;9.998;2023-04-25T11:50:34;0.70;;;0.70;;
9156;SDS011;4613;48.392;9.998;2023-04-25T11:53:24;1.00;;;0.90;;
9156;SDS011;4613;48.392;9.998;2023-04-25T11:56:14;0.90;;;0.90;;
9156;SDS011;4613;48.392;9.998;2023-04-25T11:59:04;0.80;;;0.80;;
9156;SDS011;4613;48.392;9.998;2023-04-25T12:01:54;0.90;;;0.90;;
9156;SDS011;4613;48.392;9.998;2023-04-25T12:04:43;2.47;;;1.10;;
9156;SDS011;4613;48.392;9.998;2023-04-25T12:07:33;1.50;;;1.40;;
9156;SDS011;4613;48.392;9.998;2023-04-25T12:10:24;1.23;;;0.80;;
9156;SDS011;4613;48.392;9.998;2023-04-25T12:13:18;1.00;;;1.00;;
9156;SDS011;4613;48.392;9.998;2023-04-25T12:16:09;0.90;;;0.90;;
9156;SDS011;4613;48.392;9.998;2023-04-25T12:18:58;0.80;;;0.80;;
9156;SDS011;4613;48.392;9.998;2023-04-25T12:21:48;1.03;;;1.00;;
9156;SDS011;4613;48.392;9.998;2023-04-25T12:24:39;0.80;;;0.80;;
9156;SDS011;4613;48.392;9.998;2023-04-25T12:27:30;0.90;;;0.90;;
9156;SDS011;4613;48.392;9.998;2023-04-25T12:30:20;0.90;;;0.90;;
9156;SDS011;4613;48.392;9.998;2023-04-25T12:33:09;1.30;;;1.20;;
9156;SDS011;4613;48.392;9.998;2023-04-25T12:35:59;0.80;;;0.80;;
9156;SDS011;4613;48.392;9.998;2023-04-25T12:38:52;0.90;;;0.90;;
9156;SDS011;4613;48.392;9.998;2023-04-25T12:41:41;0.90;;;0.90;;
9156;SDS011;4613;48.392;9.998;2023-04-25T12:44:31;0.90;;;0.90;;
9156;SDS011;4613;48.392;9.998;2023-04-25T12:47:22;0.90;;;0.90;;
9156;SDS011;4613;48.392;9.998;2023-04-25T12:50:11;1.00;;;1.00;;
9156;SDS011;4613;48.392;9.998;2023-04-25T12:53:01;0.90;;;0.90;;
9156;SDS011;4613;48.392;9.998;2023-04-25T12:55:50;0.93;;;0.90;;
9156;SDS011;4613;48.392;9.998;2023-04-25T12:58:39;0.70;;;0.70;;
9156;SDS011;4613;48.392;9.998;2023-04-25T13:01:29;1.50;;;0.60;;
9156;SDS011;4613;48.392;9.998;2023-04-25T13:04:18;0.60;;;0.60;;
9156;SDS011;4613;48.392;9.998;2023-04-25T13:07:09;0.60;;;0.60;;
9156;SDS011;4613;48.392;9.998;2023-04-25T13:09:58;0.63;;;0.60;;
9156;SDS011;4613;48.392;9.998;2023-04-25T13:12:49;0.53;;;0.50;;
9156;SDS011;4613;48.392;9.998;2023-04-25T13:15:39;0.70;;;0.70;;
9156;SDS011;4613;48.392;9.998;2023-04-25T13:18:29;1.33;;;1.10;;
9156;SDS011;4613;48.392;9.998;2023-04-25T13:21:19;0.80;;;0.80;;
9156;SDS011;4613;48.392;9.998;2023-04-25T13:24:08;0.60;;;0.60;;
9156;SDS011;4613;48.392;9.998;2023-04-25T13:26:57;0.60;;;0.60;;
9156;SDS011;4613;48.392;9.998;2023-04-25T13:29:46;0.47;;;0.47;;
9156;SDS011;4613;48.392;9.998;2023-04-25T13:32:37;0.60;;;0.60;;
9156;SDS011;4613;48.392;9.998;2023-04-25T13:35:27;0.60;;;0.60;;
9156;SDS011;4613;48.392;9.998;2023-04-25T13:38:16;0.70;;;0.70;;
9156;SDS011;4613;48.392;9.998;2023-04-25T13:41:05;0.50;;;0.50;;
9156;SDS011;4613;48.392;9.998;2023-04-25T13:43:55;0.60;;;0.60;;
9156;SDS011;4613;48.392;9.998;2023-04-25T13:46:44;0.60;;;0.60;;
9156;SDS011;4613;48.392;9.998;2023-04-25T13:49:35;0.67;;;0.67;;
9156;SDS011;4613;48.392;9.998;2023-04-25T13:52:24;0.70;;;0.70;;
9156;SDS011;4613;48.392;9.998;2023-04-25T13:55:14;0.80;;;0.80;;
9156;SDS011;4613;48.392;9.998;2023-04-25T13:58:04;0.80;;;0.80;;
9156;SDS011;4613;48.392;9.998;2023-04-25T14:00:56;0.70;;;0.70;;
9156;SDS011;4613;48.392;9.998;2023-04-25T14:03:45;0.80;;;0.80;;
9156;SDS011;4613;48.392;9.998;2023-04-25T14:06:34;0.90;;;0.90;;
9156;SDS011;4613;48.392;9.998;2023-04-25T14:09:24;1.17;;;1.00;;
9156;SDS011;4613;48.392;9.998;2023-04-25T14:12:15;1.23;;;1.00;;
9156;SDS011;4613;48.392;9.998;2023-04-25T14:15:05;1.10;;;1.00;;
9156;SDS011;4613;48.392;9.998;2023-04-25T14:17:57;1.57;;;1.30;;
9156;SDS011;4613;48.392;9.998;2023-04-25T14:20:46;1.13;;;1.03;;
9156;SDS011;4613;48.392;9.998;2023-04-25T14:23:36;0.97;;;0.97;;
9156;SDS011;4613;48.392;9.998;2023-04-25T14:26:25;0.80;;;0.80;;
9156;SDS011;4613;48.392;9.998;2023-04-25T14:29:14;0.93;;;0.93;;
9156;SDS011;4613;48.392;9.998;2023-04-25T14:32:03;1.03;;;0.90;;
9156;SDS011;4613;48.392;9.998;2023-04-25T14:34:54;0.90;;;0.90;;
9156;SDS011;4613;48.392;9.998;2023-04-25T14:37:43;0.90;;;0.90;;
9156;SDS011;4613;48.392;9.998;2023-04-25T14:40:33;0.90;;;0.90;;
9156;SDS011;4613;48.392;9.998;2023-04-25T14:43:22;1.00;;;1.00;;
9156;SDS011;4613;48.392;9.998;2023-04-25T14:46:11;0.80;;;0.80;;
9156;SDS011;4613;48.392;9.998;2023-04-25T14:49:01;1.00;;;1.00;;
9156;SDS011;4613;48.392;9.998;2023-04-25T14:51:51;1.00;;;1.00;;
9156;SDS011;4613;48.392;9.998;2023-04-25T14:54:40;1.00;;;0.93;;
9156;SDS011;4613;48.392;9.998;2023-04-25T14:57:30;1.00;;;1.00;;
9156;SDS011;4613;48.392;9.998;2023-04-25T15:00:23;0.80;;;0.80;;
9156;SDS011;4613;48.392;9.998;2023-04-25T15:03:14;1.30;;;1.20;;
9156;SDS011;4613;48.392;9.998;2023-04-25T15:06:05;1.13;;;1.03;;
9156;SDS011;4613;48.392;9.998;2023-04-25T15:08:54;1.17;;;1.10;;
9156;SDS011;4613;48.392;9.998;2023-04-25T15:11:44;1.20;;;1.10;;
9156;SDS011;4613;48.392;9.998;2023-04-25T15:14:33;1.30;;;1.20;;
9156;SDS011;4613;48.392;9.998;2023-04-25T15:17:22;1.27;;;1.17;;
9156;SDS011;4613;48.392;9.998;2023-04-25T15:20:12;0.80;;;0.80;;
9156;SDS011;4613;48.392;9.998;2023-04-25T15:23:02;1.30;;;1.20;;
9156;SDS011;4613;48.392;9.998;2023-04-25T15:25:53;1.83;;;1.53;;
9156;SDS011;4613;48.392;9.998;2023-04-25T15:28:43;1.40;;;1.20;;
9156;SDS011;4613;48.392;9.998;2023-04-25T15:31:32;1.93;;;1.30;;
9156;SDS011;4613;48.392;9.998;2023-04-25T15:34:21;1.33;;;1.23;;
9156;SDS011;4613;48.392;9.998;2023-04-25T15:37:11;1.17;;;1.07;;
9156;SDS011;4613;48.392;9.998;2023-04-25T15:40:05;1.00;;;1.00;;
9156;SDS011;4613;48.392;9.998;2023-04-25T15:42:58;1.00;;;1.00;;
9156;SDS011;4613;48.392;9.998;2023-04-25T15:45:47;1.17;;;1.03;;
9156;SDS011;4613;48.392;9.998;2023-04-25T15:48:36;1.40;;;1.30;;
9156;SDS011;4613;48.392;9.998;2023-04-25T15:51:26;1.77;;;1.20;;
9156;SDS011;4613;48.392;9.998;2023-04-25T15:54:16;1.50;;;1.30;;
9156;SDS011;4613;48.392;9.998;2023-04-25T15:57:06;1.73;;;1.40;;
9156;SDS011;4613;48.392;9.998;2023-04-25T15:59:58;1.33;;;1.23;;
9156;SDS011;4613;48.392;9.998;2023-04-25T16:02:47;1.37;;;1.27;;
9156;SDS011;4613;48.392;9.998;2023-04-25T16:05:36;1.50;;;1.40;;
9156;SDS011;4613;48.392;9.998;2023-04-25T16:08:26;1.40;;;1.30;;
9156;SDS011;4613;48.392;9.998;2023-04-25T16:11:18;1.90;;;1.70;;
9156;SDS011;4613;48.392;9.998;2023-04-25T16:14:07;1.40;;;1.30;;
9156;SDS011;4613;48.392;9.998;2023-04-25T16:16:58;3.73;;;1.50;;
9156;SDS011;4613;48.392;9.998;2023-04-25T16:19:47;1.40;;;1.30;;
9156;SDS011;4613;48.392;9.998;2023-04-25T16:22:38;1.50;;;1.30;;
9156;SDS011;4613;48.392;9.998;2023-04-25T16:25:28;1.43;;;1.30;;
9156;SDS011;4613;48.392;9.998;2023-04-25T16:28:17;1.53;;;1.43;;
9156;SDS011;4613;48.392;9.998;2023-04-25T16:31:06;1.60;;;1.50;;
9156;SDS011;4613;48.392;9.998;2023-04-25T16:33:55;1.60;;;1.50;;
9156;SDS011;4613;48.392;9.998;2023-04-25T16:36:45;1.50;;;1.40;;
9156;SDS011;4613;48.392;9.998;2023-04-25T16:39:35;1.43;;;1.23;;
9156;SDS011;4613;48.392;9.998;2023-04-25T16:42:25;2.30;;;1.30;;
9156;SDS011;4613;48.392;9.998;2023-04-25T16:45:15;2.83;;;1.67;;
9156;SDS011;4613;48.392;9.998;2023-04-25T16:48:08;1.30;;;1.20;;
9156;SDS011;4613;48.392;9.998;2023-04-25T16:50:57;1.70;;;1.60;;
9156;SDS011;4613;48.392;9.998;2023-04-25T16:53:46;2.43;;;1.97;;
9156;SDS011;4613;48.392;9.998;2023-04-25T16:56:36;1.80;;;1.70;;
9156;SDS011;4613;48.392;9.998;2023-04-25T16:59:25;1.77;;;1.60;;
9156;SDS011;4613;48.392;9.998;2023-04-25T17:02:15;2.00;;;1.53;;
9156;SDS011;4613;48.392;9.998;2023-04-25T17:05:04;3.53;;;1.40;;
9156;SDS011;4613;48.392;9.998;2023-04-25T17:07:54;1.57;;;1.47;;
9156;SDS011;4613;48.392;9.998;2023-04-25T17:10:44;2.00;;;1.57;;
9156;SDS011;4613;48.392;9.998;2023-04-25T17:13:34;3.17;;;1.67;;
9156;SDS011;4613;48.392;9.998;2023-04-25T17:16:32;1.60;;;1.50;;
9156;SDS011;4613;48.392;9.998;2023-04-25T17:19:22;1.60;;;1.50;;
9156;SDS011;4613;48.392;9.998;2023-04-25T17:22:13;1.63;;;1.47;;
9156;SDS011;4613;48.392;9.998;2023-04-25T17:25:03;1.40;;;1.30;;
9156;SDS011;4613;48.392;9.998;2023-04-25T17:27:57;1.70;;;1.60;;
9156;SDS011;4613;48.392;9.998;2023-04-25T17:30:47;1.93;;;1.60;;
9156;SDS011;4613;48.392;9.998;2023-04-25T17:33:36;4.17;;;1.87;;
9156;SDS011;4613;48.392;9.998;2023-04-25T17:36:25;1.80;;;1.67;;
9156;SDS011;4613;48.392;9.998;2023-04-25T17:39:15;2.17;;;1.83;;
9156;SDS011;4613;48.392;9.998;2023-04-25T17:42:04;2.10;;;1.90;;
9156;SDS011;4613;48.392;9.998;2023-04-25T17:44:54;1.83;;;1.53;;
9156;SDS011;4613;48.392;9.998;2023-04-25T17:47:43;2.87;;;2.20;;
9156;SDS011;4613;48.392;9.998;2023-04-25T17:50:33;2.63;;;1.80;;